sensor_id;sensor_type;location;lat;lon;timestamp;temperature;humidity
68051;DHT22;54839;51.364;7.246;2024-01-11T00:01:23;-6.30;99.90
68051;DHT22;54839;51.364;7.246;2024-01-11T00:03:49;-6.50;99.90
68051;DHT22;54839;51.364;7.246;2024-01-11T00:06:14;-6.40;99.90
68051;DHT22;54839;51.364;7.246;2024-01-11T00:08:40;-6.30;99.90
68051;DHT22;54839;51.364;7.246;2024-01-11T00:11:05;-6.30;99.90
68051;DHT22;54839;51.364;7.246;2024-01-11T00:13:31;-6.30;99.90
68051;DHT22;54839;51.364;7.246;2024-01-11T00:15:56;-6.40;99.90
68051;DHT22;54839;51.364;7.246;2024-01-11T00:18:22;-6.50;99.90
68051;DHT22;54839;51.364;7.246;2024-01-11T00:20:47;-6.60;99.90
68051;DHT22;54839;51.364;7.246;2024-01-11T00:23:13;-6.50;99.90
68051;DHT22;54839;51.364;7.246;2024-01-11T00:25:38;-6.50;99.90
68051;DHT22;54839;51.364;7.246;2024-01-11T00:28:04;-6.40;99.90
68051;DHT22;54839;51.364;7.246;2024-01-11T00:30:30;-6.40;99.90
68051;DHT22;54839;51.364;7.246;2024-01-11T00:32:55;-6.60;99.90
68051;DHT22;54839;51.364;7.246;2024-01-11T00:35:21;-6.60;99.90
68051;DHT22;54839;51.364;7.246;2024-01-11T00:37:46;-6.60;99.90
68051;DHT22;54839;51.364;7.246;2024-01-11T00:40:12;-6.50;99.90
68051;DHT22;54839;51.364;7.246;2024-01-11T00:42:37;-6.60;99.90
68051;DHT22;54839;51.364;7.246;2024-01-11T00:45:03;-6.50;99.90
68051;DHT22;54839;51.364;7.246;2024-01-11T00:47:29;-6.40;99.90
68051;DHT22;54839;51.364;7.246;2024-01-11T00:49:55;-6.40;99.90
68051;DHT22;54839;51.364;7.246;2024-01-11T00:52:20;-6.40;99.90
68051;DHT22;54839;51.364;7.246;2024-01-11T00:54:46;-6.60;99.90
68051;DHT22;54839;51.364;7.246;2024-01-11T00:57:12;-6.50;99.90
68051;DHT22;54839;51.364;7.246;2024-01-11T00:59:39;-6.60;99.90
68051;DHT22;54839;51.364;7.246;2024-01-11T01:02:04;-6.60;99.90
68051;DHT22;54839;51.364;7.246;2024-01-11T01:04:30;-6.50;99.90
68051;DHT22;54839;51.364;7.246;2024-01-11T01:06:55;-6.50;99.90
68051;DHT22;54839;51.364;7.246;2024-01-11T01:09:21;-6.40;99.90
68051;DHT22;54839;51.364;7.246;2024-01-11T01:11:47;-6.50;99.90
68051;DHT22;54839;51.364;7.246;2024-01-11T01:14:12;-6.50;99.90
68051;DHT22;54839;51.364;7.246;2024-01-11T01:16:38;-6.70;99.90
68051;DHT22;54839;51.364;7.246;2024-01-11T01:19:03;-6.80;99.90
68051;DHT22;54839;51.364;7.246;2024-01-11T01:21:29;-6.70;99.90
68051;DHT22;54839;51.364;7.246;2024-01-11T01:23:54;-6.80;99.90
68051;DHT22;54839;51.364;7.246;2024-01-11T01:26:20;-6.80;99.90
68051;DHT22;54839;51.364;7.246;2024-01-11T01:28:45;-6.70;99.90
68051;DHT22;54839;51.364;7.246;2024-01-11T01:31:11;-6.80;99.90
68051;DHT22;54839;51.364;7.246;2024-01-11T01:33:37;-6.80;99.90
68051;DHT22;54839;51.364;7.246;2024-01-11T01:36:03;-6.80;99.90
68051;DHT22;54839;51.364;7.246;2024-01-11T01:38:28;-6.90;99.90
68051;DHT22;54839;51.364;7.246;2024-01-11T01:40:55;-7.00;99.90
68051;DHT22;54839;51.364;7.246;2024-01-11T01:43:21;-7.00;99.90
68051;DHT22;54839;51.364;7.246;2024-01-11T01:45:47;-7.00;99.90
68051;DHT22;54839;51.364;7.246;2024-01-11T01:48:12;-7.00;99.90
68051;DHT22;54839;51.364;7.246;2024-01-11T01:50:38;-7.10;99.90
68051;DHT22;54839;51.364;7.246;2024-01-11T01:53:04;-7.10;99.90
68051;DHT22;54839;51.364;7.246;2024-01-11T01:55:29;-7.10;99.90
68051;DHT22;54839;51.364;7.246;2024-01-11T01:57:56;-7.00;99.90
68051;DHT22;54839;51.364;7.246;2024-01-11T02:00:23;-6.90;99.90
68051;DHT22;54839;51.364;7.246;2024-01-11T02:02:50;-6.80;99.90
68051;DHT22;54839;51.364;7.246;2024-01-11T02:05:18;-6.70;99.90
68051;DHT22;54839;51.364;7.246;2024-01-11T02:07:44;-6.70;99.90
68051;DHT22;54839;51.364;7.246;2024-01-11T02:10:10;-6.70;99.90
68051;DHT22;54839;51.364;7.246;2024-01-11T02:12:36;-6.70;99.90
68051;DHT22;54839;51.364;7.246;2024-01-11T02:15:03;-6.90;99.90
68051;DHT22;54839;51.364;7.246;2024-01-11T02:17:32;-7.00;99.90
68051;DHT22;54839;51.364;7.246;2024-01-11T02:19:58;-7.00;99.90
68051;DHT22;54839;51.364;7.246;2024-01-11T02:22:35;-7.10;99.90
68051;DHT22;54839;51.364;7.246;2024-01-11T02:25:03;-7.10;99.90
68051;DHT22;54839;51.364;7.246;2024-01-11T02:27:29;-7.20;99.90
68051;DHT22;54839;51.364;7.246;2024-01-11T02:29:55;-7.20;99.90
68051;DHT22;54839;51.364;7.246;2024-01-11T02:32:20;-7.20;99.90
68051;DHT22;54839;51.364;7.246;2024-01-11T02:34:47;-7.20;99.90
68051;DHT22;54839;51.364;7.246;2024-01-11T02:37:13;-7.10;99.90
68051;DHT22;54839;51.364;7.246;2024-01-11T02:39:39;-7.10;99.90
68051;DHT22;54839;51.364;7.246;2024-01-11T02:42:05;-7.20;99.90
68051;DHT22;54839;51.364;7.246;2024-01-11T02:44:30;-7.10;99.90
68051;DHT22;54839;51.364;7.246;2024-01-11T02:46:56;-7.20;99.90
68051;DHT22;54839;51.364;7.246;2024-01-11T02:49:21;-7.20;99.90
68051;DHT22;54839;51.364;7.246;2024-01-11T02:51:47;-7.10;99.90
68051;DHT22;54839;51.364;7.246;2024-01-11T02:54:12;-7.10;99.90
68051;DHT22;54839;51.364;7.246;2024-01-11T02:56:38;-7.20;99.90
68051;DHT22;54839;51.364;7.246;2024-01-11T02:59:03;-7.10;99.90
68051;DHT22;54839;51.364;7.246;2024-01-11T03:01:29;-7.20;99.90
68051;DHT22;54839;51.364;7.246;2024-01-11T03:03:55;-7.30;99.90
68051;DHT22;54839;51.364;7.246;2024-01-11T03:06:21;-7.30;99.90
68051;DHT22;54839;51.364;7.246;2024-01-11T03:08:51;-7.30;99.90
68051;DHT22;54839;51.364;7.246;2024-01-11T03:11:16;-7.40;99.90
68051;DHT22;54839;51.364;7.246;2024-01-11T03:13:42;-7.40;99.90
68051;DHT22;54839;51.364;7.246;2024-01-11T03:16:07;-7.30;99.90
68051;DHT22;54839;51.364;7.246;2024-01-11T03:18:33;-7.40;99.90
68051;DHT22;54839;51.364;7.246;2024-01-11T03:20:59;-7.40;99.90
68051;DHT22;54839;51.364;7.246;2024-01-11T03:23:24;-7.30;99.90
68051;DHT22;54839;51.364;7.246;2024-01-11T03:25:50;-7.30;99.90
68051;DHT22;54839;51.364;7.246;2024-01-11T03:28:15;-7.50;99.90
68051;DHT22;54839;51.364;7.246;2024-01-11T03:30:41;-7.50;99.90
68051;DHT22;54839;51.364;7.246;2024-01-11T03:33:06;-7.40;99.90
68051;DHT22;54839;51.364;7.246;2024-01-11T03:35:32;-7.40;99.90
68051;DHT22;54839;51.364;7.246;2024-01-11T03:37:57;-7.40;99.90
68051;DHT22;54839;51.364;7.246;2024-01-11T03:40:23;-7.30;99.90
68051;DHT22;54839;51.364;7.246;2024-01-11T03:42:49;-7.30;99.90
68051;DHT22;54839;51.364;7.246;2024-01-11T03:45:17;-7.20;99.90
68051;DHT22;54839;51.364;7.246;2024-01-11T03:47:44;-7.30;99.90
68051;DHT22;54839;51.364;7.246;2024-01-11T03:50:10;-7.40;99.90
68051;DHT22;54839;51.364;7.246;2024-01-11T03:52:35;-7.40;99.90
68051;DHT22;54839;51.364;7.246;2024-01-11T03:55:01;-7.40;99.90
68051;DHT22;54839;51.364;7.246;2024-01-11T03:57:26;-7.60;99.90
68051;DHT22;54839;51.364;7.246;2024-01-11T03:59:52;-7.60;99.90
68051;DHT22;54839;51.364;7.246;2024-01-11T04:02:18;-7.70;99.90
68051;DHT22;54839;51.364;7.246;2024-01-11T04:04:44;-7.70;99.90
68051;DHT22;54839;51.364;7.246;2024-01-11T04:07:10;-7.70;99.90
68051;DHT22;54839;51.364;7.246;2024-01-11T04:09:40;-7.70;99.90
68051;DHT22;54839;51.364;7.246;2024-01-11T04:12:06;-7.70;99.90
68051;DHT22;54839;51.364;7.246;2024-01-11T04:14:31;-7.70;99.90
68051;DHT22;54839;51.364;7.246;2024-01-11T04:16:57;-7.80;99.90
68051;DHT22;54839;51.364;7.246;2024-01-11T04:19:22;-7.70;99.90
68051;DHT22;54839;51.364;7.246;2024-01-11T04:21:48;-7.70;99.90
68051;DHT22;54839;51.364;7.246;2024-01-11T04:24:13;-7.80;99.90
68051;DHT22;54839;51.364;7.246;2024-01-11T04:26:39;-7.80;99.90
68051;DHT22;54839;51.364;7.246;2024-01-11T04:29:05;-7.70;99.90
68051;DHT22;54839;51.364;7.246;2024-01-11T04:31:30;-7.70;99.90
68051;DHT22;54839;51.364;7.246;2024-01-11T04:33:56;-7.70;99.90
68051;DHT22;54839;51.364;7.246;2024-01-11T04:36:21;-7.60;99.90
68051;DHT22;54839;51.364;7.246;2024-01-11T04:38:47;-7.70;99.90
68051;DHT22;54839;51.364;7.246;2024-01-11T04:41:13;-7.60;99.90
68051;DHT22;54839;51.364;7.246;2024-01-11T04:43:43;-7.60;99.90
68051;DHT22;54839;51.364;7.246;2024-01-11T04:46:22;-7.60;99.90
68051;DHT22;54839;51.364;7.246;2024-01-11T04:48:49;-7.60;99.90
68051;DHT22;54839;51.364;7.246;2024-01-11T04:51:15;-7.70;99.90
68051;DHT22;54839;51.364;7.246;2024-01-11T04:53:42;-7.70;99.90
68051;DHT22;54839;51.364;7.246;2024-01-11T04:56:09;-7.60;99.90
68051;DHT22;54839;51.364;7.246;2024-01-11T04:58:36;-7.50;99.90
68051;DHT22;54839;51.364;7.246;2024-01-11T05:01:04;-7.60;99.90
68051;DHT22;54839;51.364;7.246;2024-01-11T05:03:30;-7.80;99.90
68051;DHT22;54839;51.364;7.246;2024-01-11T05:05:57;-7.70;99.90
68051;DHT22;54839;51.364;7.246;2024-01-11T05:08:22;-7.80;99.90
68051;DHT22;54839;51.364;7.246;2024-01-11T05:10:49;-7.70;99.90
68051;DHT22;54839;51.364;7.246;2024-01-11T05:13:15;-7.80;99.90
68051;DHT22;54839;51.364;7.246;2024-01-11T05:15:40;-7.70;99.90
68051;DHT22;54839;51.364;7.246;2024-01-11T05:18:06;-7.80;99.90
68051;DHT22;54839;51.364;7.246;2024-01-11T05:20:31;-7.90;99.90
68051;DHT22;54839;51.364;7.246;2024-01-11T05:22:57;-7.80;99.90
68051;DHT22;54839;51.364;7.246;2024-01-11T05:25:23;-7.70;99.90
68051;DHT22;54839;51.364;7.246;2024-01-11T05:27:48;-7.80;99.90
68051;DHT22;54839;51.364;7.246;2024-01-11T05:30:14;-7.70;99.90
68051;DHT22;54839;51.364;7.246;2024-01-11T05:32:39;-7.80;99.90
68051;DHT22;54839;51.364;7.246;2024-01-11T05:35:05;-7.90;99.90
68051;DHT22;54839;51.364;7.246;2024-01-11T05:37:31;-7.90;99.90
68051;DHT22;54839;51.364;7.246;2024-01-11T05:39:56;-7.90;99.90
68051;DHT22;54839;51.364;7.246;2024-01-11T05:42:23;-7.80;99.90
68051;DHT22;54839;51.364;7.246;2024-01-11T05:44:48;-7.90;99.90
68051;DHT22;54839;51.364;7.246;2024-01-11T05:47:14;-8.00;99.90
68051;DHT22;54839;51.364;7.246;2024-01-11T05:49:40;-8.00;99.90
68051;DHT22;54839;51.364;7.246;2024-01-11T05:52:06;-7.90;99.90
68051;DHT22;54839;51.364;7.246;2024-01-11T05:54:31;-7.90;99.90
68051;DHT22;54839;51.364;7.246;2024-01-11T05:56:57;-8.00;99.90
68051;DHT22;54839;51.364;7.246;2024-01-11T05:59:24;-7.90;99.90
68051;DHT22;54839;51.364;7.246;2024-01-11T06:01:49;-7.90;99.90
68051;DHT22;54839;51.364;7.246;2024-01-11T06:04:15;-7.90;99.90
68051;DHT22;54839;51.364;7.246;2024-01-11T06:06:41;-7.80;99.90
68051;DHT22;54839;51.364;7.246;2024-01-11T06:09:07;-7.70;99.90
68051;DHT22;54839;51.364;7.246;2024-01-11T06:11:33;-7.70;99.90
68051;DHT22;54839;51.364;7.246;2024-01-11T06:13:59;-7.70;99.90
68051;DHT22;54839;51.364;7.246;2024-01-11T06:16:26;-7.70;99.90
68051;DHT22;54839;51.364;7.246;2024-01-11T06:18:51;-7.70;99.90
68051;DHT22;54839;51.364;7.246;2024-01-11T06:21:17;-7.70;99.90
68051;DHT22;54839;51.364;7.246;2024-01-11T06:23:45;-7.70;99.90
68051;DHT22;54839;51.364;7.246;2024-01-11T06:26:11;-7.70;99.90
68051;DHT22;54839;51.364;7.246;2024-01-11T06:28:37;-7.80;99.90
68051;DHT22;54839;51.364;7.246;2024-01-11T06:31:02;-7.80;99.90
68051;DHT22;54839;51.364;7.246;2024-01-11T06:33:28;-7.80;99.90
68051;DHT22;54839;51.364;7.246;2024-01-11T06:35:54;-7.80;99.90
68051;DHT22;54839;51.364;7.246;2024-01-11T06:38:19;-7.70;99.90
68051;DHT22;54839;51.364;7.246;2024-01-11T06:40:45;-7.60;99.90
68051;DHT22;54839;51.364;7.246;2024-01-11T06:43:11;-7.60;99.90
68051;DHT22;54839;51.364;7.246;2024-01-11T06:45:36;-7.80;99.90
68051;DHT22;54839;51.364;7.246;2024-01-11T06:48:02;-7.90;99.90
68051;DHT22;54839;51.364;7.246;2024-01-11T06:50:28;-7.90;99.90
68051;DHT22;54839;51.364;7.246;2024-01-11T06:52:54;-7.80;99.90
68051;DHT22;54839;51.364;7.246;2024-01-11T06:55:19;-7.80;99.90
68051;DHT22;54839;51.364;7.246;2024-01-11T06:57:48;-7.80;99.90
68051;DHT22;54839;51.364;7.246;2024-01-11T07:00:14;-7.80;99.90
68051;DHT22;54839;51.364;7.246;2024-01-11T07:02:39;-7.80;99.90
68051;DHT22;54839;51.364;7.246;2024-01-11T07:05:06;-7.80;99.90
68051;DHT22;54839;51.364;7.246;2024-01-11T07:07:31;-7.80;99.90
68051;DHT22;54839;51.364;7.246;2024-01-11T07:09:58;-7.80;99.90
68051;DHT22;54839;51.364;7.246;2024-01-11T07:12:23;-7.70;99.90
68051;DHT22;54839;51.364;7.246;2024-01-11T07:14:49;-7.50;99.90
68051;DHT22;54839;51.364;7.246;2024-01-11T07:17:15;-7.50;99.90
68051;DHT22;54839;51.364;7.246;2024-01-11T07:19:40;-7.40;99.90
68051;DHT22;54839;51.364;7.246;2024-01-11T07:22:06;-7.40;99.90
68051;DHT22;54839;51.364;7.246;2024-01-11T07:24:31;-7.40;99.90
68051;DHT22;54839;51.364;7.246;2024-01-11T07:27:06;-7.40;99.90
68051;DHT22;54839;51.364;7.246;2024-01-11T07:29:33;-7.40;99.90
68051;DHT22;54839;51.364;7.246;2024-01-11T07:31:59;-7.40;99.90
68051;DHT22;54839;51.364;7.246;2024-01-11T07:34:25;-7.60;99.90
68051;DHT22;54839;51.364;7.246;2024-01-11T07:36:52;-7.60;99.90
68051;DHT22;54839;51.364;7.246;2024-01-11T07:39:18;-7.60;99.90
68051;DHT22;54839;51.364;7.246;2024-01-11T07:41:44;-7.60;99.90
68051;DHT22;54839;51.364;7.246;2024-01-11T07:44:09;-7.50;99.90
68051;DHT22;54839;51.364;7.246;2024-01-11T07:46:35;-7.40;99.90
68051;DHT22;54839;51.364;7.246;2024-01-11T07:49:02;-7.30;99.90
68051;DHT22;54839;51.364;7.246;2024-01-11T07:51:28;-7.20;99.90
68051;DHT22;54839;51.364;7.246;2024-01-11T07:53:53;-7.10;99.90
68051;DHT22;54839;51.364;7.246;2024-01-11T07:56:19;-7.10;99.90
68051;DHT22;54839;51.364;7.246;2024-01-11T07:58:45;-7.00;99.90
68051;DHT22;54839;51.364;7.246;2024-01-11T08:01:11;-7.00;99.90
68051;DHT22;54839;51.364;7.246;2024-01-11T08:03:38;-7.00;99.90
68051;DHT22;54839;51.364;7.246;2024-01-11T08:06:04;-7.10;99.90
68051;DHT22;54839;51.364;7.246;2024-01-11T08:08:30;-7.00;99.90
68051;DHT22;54839;51.364;7.246;2024-01-11T08:10:56;-7.10;99.90
68051;DHT22;54839;51.364;7.246;2024-01-11T08:13:21;-7.00;99.90
68051;DHT22;54839;51.364;7.246;2024-01-11T08:15:47;-7.00;99.90
68051;DHT22;54839;51.364;7.246;2024-01-11T08:18:13;-6.90;99.90
68051;DHT22;54839;51.364;7.246;2024-01-11T08:20:39;-6.80;99.90
68051;DHT22;54839;51.364;7.246;2024-01-11T08:23:06;-6.70;99.90
68051;DHT22;54839;51.364;7.246;2024-01-11T08:25:32;-6.60;99.90
68051;DHT22;54839;51.364;7.246;2024-01-11T08:27:57;-6.40;99.90
68051;DHT22;54839;51.364;7.246;2024-01-11T08:30:23;-6.40;99.90
68051;DHT22;54839;51.364;7.246;2024-01-11T08:32:48;-6.40;99.90
68051;DHT22;54839;51.364;7.246;2024-01-11T08:35:14;-6.20;99.90
68051;DHT22;54839;51.364;7.246;2024-01-11T08:37:40;-6.10;99.90
68051;DHT22;54839;51.364;7.246;2024-01-11T08:40:06;-6.20;99.90
68051;DHT22;54839;51.364;7.246;2024-01-11T08:42:32;-6.20;99.90
68051;DHT22;54839;51.364;7.246;2024-01-11T08:44:58;-6.20;99.90
68051;DHT22;54839;51.364;7.246;2024-01-11T08:47:24;-6.20;99.90
68051;DHT22;54839;51.364;7.246;2024-01-11T08:49:49;-6.20;99.90
68051;DHT22;54839;51.364;7.246;2024-01-11T08:52:15;-6.10;99.90
68051;DHT22;54839;51.364;7.246;2024-01-11T08:54:40;-6.00;99.90
68051;DHT22;54839;51.364;7.246;2024-01-11T08:57:06;-6.00;99.90
68051;DHT22;54839;51.364;7.246;2024-01-11T08:59:31;-5.90;99.90
68051;DHT22;54839;51.364;7.246;2024-01-11T09:01:58;-5.90;99.90
68051;DHT22;54839;51.364;7.246;2024-01-11T09:04:23;-5.80;99.90
68051;DHT22;54839;51.364;7.246;2024-01-11T09:06:49;-5.80;99.90
68051;DHT22;54839;51.364;7.246;2024-01-11T09:09:14;-5.60;99.90
68051;DHT22;54839;51.364;7.246;2024-01-11T09:11:40;-5.50;99.90
68051;DHT22;54839;51.364;7.246;2024-01-11T09:14:06;-5.30;99.90
68051;DHT22;54839;51.364;7.246;2024-01-11T09:16:32;-5.30;99.90
68051;DHT22;54839;51.364;7.246;2024-01-11T09:18:58;-5.20;99.90
68051;DHT22;54839;51.364;7.246;2024-01-11T09:21:26;-5.10;99.90
68051;DHT22;54839;51.364;7.246;2024-01-11T09:23:51;-5.10;99.90
68051;DHT22;54839;51.364;7.246;2024-01-11T09:26:17;-5.10;99.90
68051;DHT22;54839;51.364;7.246;2024-01-11T09:28:42;-5.00;99.90
68051;DHT22;54839;51.364;7.246;2024-01-11T09:31:08;-4.80;99.90
68051;DHT22;54839;51.364;7.246;2024-01-11T09:33:33;-4.90;99.90
68051;DHT22;54839;51.364;7.246;2024-01-11T09:35:59;-4.80;99.90
68051;DHT22;54839;51.364;7.246;2024-01-11T09:38:26;-4.60;99.90
68051;DHT22;54839;51.364;7.246;2024-01-11T09:41:12;-4.70;99.90
68051;DHT22;54839;51.364;7.246;2024-01-11T09:43:42;-4.60;99.90
68051;DHT22;54839;51.364;7.246;2024-01-11T09:46:09;-4.50;99.90
68051;DHT22;54839;51.364;7.246;2024-01-11T09:48:38;-4.30;99.90
68051;DHT22;54839;51.364;7.246;2024-01-11T09:51:05;-4.20;99.90
68051;DHT22;54839;51.364;7.246;2024-01-11T09:53:32;-4.10;99.90
68051;DHT22;54839;51.364;7.246;2024-01-11T09:55:59;-4.20;99.90
68051;DHT22;54839;51.364;7.246;2024-01-11T09:58:26;-4.00;99.90
68051;DHT22;54839;51.364;7.246;2024-01-11T10:00:56;-4.00;99.90
68051;DHT22;54839;51.364;7.246;2024-01-11T10:03:25;-3.90;99.90
68051;DHT22;54839;51.364;7.246;2024-01-11T10:05:55;-3.80;99.90
68051;DHT22;54839;51.364;7.246;2024-01-11T10:08:22;-3.70;99.90
68051;DHT22;54839;51.364;7.246;2024-01-11T10:10:48;-3.70;99.90
68051;DHT22;54839;51.364;7.246;2024-01-11T10:13:15;-3.60;99.90
68051;DHT22;54839;51.364;7.246;2024-01-11T10:15:42;-3.60;99.90
68051;DHT22;54839;51.364;7.246;2024-01-11T10:18:11;-3.50;99.90
68051;DHT22;54839;51.364;7.246;2024-01-11T10:20:37;-3.50;99.90
68051;DHT22;54839;51.364;7.246;2024-01-11T10:23:04;-3.40;99.90
68051;DHT22;54839;51.364;7.246;2024-01-11T10:25:29;-3.20;99.90
68051;DHT22;54839;51.364;7.246;2024-01-11T10:27:55;-3.10;99.90
68051;DHT22;54839;51.364;7.246;2024-01-11T10:30:20;-3.00;99.90
68051;DHT22;54839;51.364;7.246;2024-01-11T10:32:48;-3.00;99.90
68051;DHT22;54839;51.364;7.246;2024-01-11T10:35:15;-3.00;99.90
68051;DHT22;54839;51.364;7.246;2024-01-11T10:37:43;-3.00;99.90
68051;DHT22;54839;51.364;7.246;2024-01-11T10:40:09;-2.90;99.90
68051;DHT22;54839;51.364;7.246;2024-01-11T10:42:44;-2.90;99.90
68051;DHT22;54839;51.364;7.246;2024-01-11T10:45:15;-2.70;99.90
68051;DHT22;54839;51.364;7.246;2024-01-11T10:50:13;-2.60;99.90
68051;DHT22;54839;51.364;7.246;2024-01-11T10:52:47;-2.60;99.90
68051;DHT22;54839;51.364;7.246;2024-01-11T10:55:16;-2.40;99.90
68051;DHT22;54839;51.364;7.246;2024-01-11T10:57:44;-2.30;99.90
68051;DHT22;54839;51.364;7.246;2024-01-11T11:00:10;-2.30;99.90
68051;DHT22;54839;51.364;7.246;2024-01-11T11:02:38;-2.30;99.90
68051;DHT22;54839;51.364;7.246;2024-01-11T11:05:05;-2.30;99.90
68051;DHT22;54839;51.364;7.246;2024-01-11T11:07:34;-2.20;99.90
68051;DHT22;54839;51.364;7.246;2024-01-11T11:10:01;-2.00;99.90
68051;DHT22;54839;51.364;7.246;2024-01-11T11:12:28;-1.90;99.90
68051;DHT22;54839;51.364;7.246;2024-01-11T11:14:56;-1.80;99.90
68051;DHT22;54839;51.364;7.246;2024-01-11T11:17:22;-1.70;99.90
68051;DHT22;54839;51.364;7.246;2024-01-11T11:19:47;-1.60;99.90
68051;DHT22;54839;51.364;7.246;2024-01-11T11:22:13;-1.60;99.90
68051;DHT22;54839;51.364;7.246;2024-01-11T11:24:40;-1.60;99.90
68051;DHT22;54839;51.364;7.246;2024-01-11T11:27:06;-1.50;99.90
68051;DHT22;54839;51.364;7.246;2024-01-11T11:29:32;-1.50;99.90
68051;DHT22;54839;51.364;7.246;2024-01-11T11:31:58;-1.40;99.90
68051;DHT22;54839;51.364;7.246;2024-01-11T11:34:43;-1.30;99.90
68051;DHT22;54839;51.364;7.246;2024-01-11T11:37:10;-1.20;99.90
68051;DHT22;54839;51.364;7.246;2024-01-11T11:39:36;-1.10;99.90
68051;DHT22;54839;51.364;7.246;2024-01-11T11:42:04;-1.10;99.90
68051;DHT22;54839;51.364;7.246;2024-01-11T11:44:29;-1.00;99.90
68051;DHT22;54839;51.364;7.246;2024-01-11T11:47:15;-0.90;99.90
68051;DHT22;54839;51.364;7.246;2024-01-11T11:52:25;-0.70;99.90
68051;DHT22;54839;51.364;7.246;2024-01-11T11:54:50;-0.70;99.90
68051;DHT22;54839;51.364;7.246;2024-01-11T11:57:17;-0.70;99.90
68051;DHT22;54839;51.364;7.246;2024-01-11T11:59:43;-0.70;99.90
68051;DHT22;54839;51.364;7.246;2024-01-11T12:02:16;-0.60;99.90
68051;DHT22;54839;51.364;7.246;2024-01-11T12:04:47;-0.60;99.90
68051;DHT22;54839;51.364;7.246;2024-01-11T12:07:13;-0.60;99.90
68051;DHT22;54839;51.364;7.246;2024-01-11T12:09:39;-0.40;99.90
68051;DHT22;54839;51.364;7.246;2024-01-11T12:12:05;-0.50;99.90
68051;DHT22;54839;51.364;7.246;2024-01-11T12:14:30;-0.40;99.90
68051;DHT22;54839;51.364;7.246;2024-01-11T12:16:57;-0.50;99.90
68051;DHT22;54839;51.364;7.246;2024-01-11T12:19:23;-0.40;99.90
68051;DHT22;54839;51.364;7.246;2024-01-11T12:21:49;-0.30;99.90
68051;DHT22;54839;51.364;7.246;2024-01-11T12:24:16;-0.30;99.90
68051;DHT22;54839;51.364;7.246;2024-01-11T12:26:42;-0.30;99.90
68051;DHT22;54839;51.364;7.246;2024-01-11T12:29:08;-0.40;99.90
68051;DHT22;54839;51.364;7.246;2024-01-11T12:31:35;-0.30;99.90
68051;DHT22;54839;51.364;7.246;2024-01-11T12:34:01;-0.40;99.90
68051;DHT22;54839;51.364;7.246;2024-01-11T12:36:28;-0.40;99.90
68051;DHT22;54839;51.364;7.246;2024-01-11T12:38:54;-0.50;99.90
68051;DHT22;54839;51.364;7.246;2024-01-11T12:41:21;-0.50;99.90
68051;DHT22;54839;51.364;7.246;2024-01-11T12:43:48;-0.50;99.90
68051;DHT22;54839;51.364;7.246;2024-01-11T12:46:13;-0.50;99.90
68051;DHT22;54839;51.364;7.246;2024-01-11T12:48:39;-0.50;99.90
68051;DHT22;54839;51.364;7.246;2024-01-11T12:51:05;-0.50;99.90
68051;DHT22;54839;51.364;7.246;2024-01-11T12:53:31;-0.30;99.90
68051;DHT22;54839;51.364;7.246;2024-01-11T12:56:06;-0.40;99.90
68051;DHT22;54839;51.364;7.246;2024-01-11T12:58:38;-0.30;99.90
68051;DHT22;54839;51.364;7.246;2024-01-11T13:01:07;-0.30;99.90
68051;DHT22;54839;51.364;7.246;2024-01-11T13:03:44;-0.30;99.90
68051;DHT22;54839;51.364;7.246;2024-01-11T13:06:09;-0.40;99.90
68051;DHT22;54839;51.364;7.246;2024-01-11T13:08:37;-0.40;99.90
68051;DHT22;54839;51.364;7.246;2024-01-11T13:11:05;-0.30;99.90
68051;DHT22;54839;51.364;7.246;2024-01-11T13:13:35;-0.30;99.90
68051;DHT22;54839;51.364;7.246;2024-01-11T13:16:03;-0.40;99.90
68051;DHT22;54839;51.364;7.246;2024-01-11T13:18:32;-0.30;99.90
68051;DHT22;54839;51.364;7.246;2024-01-11T13:20:57;-0.40;99.90
68051;DHT22;54839;51.364;7.246;2024-01-11T13:23:23;-0.30;99.90
68051;DHT22;54839;51.364;7.246;2024-01-11T13:25:49;-0.30;99.90
68051;DHT22;54839;51.364;7.246;2024-01-11T13:28:15;-0.20;99.90
68051;DHT22;54839;51.364;7.246;2024-01-11T13:30:42;-0.20;99.90
68051;DHT22;54839;51.364;7.246;2024-01-11T13:33:09;0.00;99.90
68051;DHT22;54839;51.364;7.246;2024-01-11T13:35:36;0.20;99.90
68051;DHT22;54839;51.364;7.246;2024-01-11T13:38:03;0.10;99.90
68051;DHT22;54839;51.364;7.246;2024-01-11T13:40:29;0.10;99.90
68051;DHT22;54839;51.364;7.246;2024-01-11T13:42:55;0.30;99.90
68051;DHT22;54839;51.364;7.246;2024-01-11T13:45:25;1.70;99.90
68051;DHT22;54839;51.364;7.246;2024-01-11T13:47:52;2.90;99.90
68051;DHT22;54839;51.364;7.246;2024-01-11T13:50:19;4.10;99.90
68051;DHT22;54839;51.364;7.246;2024-01-11T13:52:45;5.30;99.90
68051;DHT22;54839;51.364;7.246;2024-01-11T13:55:11;6.00;99.90
68051;DHT22;54839;51.364;7.246;2024-01-11T13:57:37;6.30;99.90
68051;DHT22;54839;51.364;7.246;2024-01-11T14:00:04;6.40;99.90
68051;DHT22;54839;51.364;7.246;2024-01-11T14:02:31;6.30;99.90
68051;DHT22;54839;51.364;7.246;2024-01-11T14:04:57;6.90;99.90
68051;DHT22;54839;51.364;7.246;2024-01-11T14:07:23;7.10;99.90
68051;DHT22;54839;51.364;7.246;2024-01-11T14:09:49;6.90;99.90
68051;DHT22;54839;51.364;7.246;2024-01-11T14:12:14;7.00;99.90
68051;DHT22;54839;51.364;7.246;2024-01-11T14:14:41;7.30;99.90
68051;DHT22;54839;51.364;7.246;2024-01-11T14:17:07;7.90;99.90
68051;DHT22;54839;51.364;7.246;2024-01-11T14:19:33;7.90;99.90
68051;DHT22;54839;51.364;7.246;2024-01-11T14:21:59;7.70;99.90
68051;DHT22;54839;51.364;7.246;2024-01-11T14:24:24;7.60;99.90
68051;DHT22;54839;51.364;7.246;2024-01-11T14:26:51;7.90;99.90
68051;DHT22;54839;51.364;7.246;2024-01-11T14:29:16;8.10;99.90
68051;DHT22;54839;51.364;7.246;2024-01-11T14:31:42;7.60;99.90
68051;DHT22;54839;51.364;7.246;2024-01-11T14:34:08;6.80;99.90
68051;DHT22;54839;51.364;7.246;2024-01-11T14:36:33;5.70;99.90
68051;DHT22;54839;51.364;7.246;2024-01-11T14:38:59;3.90;99.90
68051;DHT22;54839;51.364;7.246;2024-01-11T14:41:24;3.00;99.90
68051;DHT22;54839;51.364;7.246;2024-01-11T14:43:50;2.20;99.90
68051;DHT22;54839;51.364;7.246;2024-01-11T14:46:15;1.90;99.90
68051;DHT22;54839;51.364;7.246;2024-01-11T14:48:41;1.60;99.90
68051;DHT22;54839;51.364;7.246;2024-01-11T14:51:07;1.30;99.90
68051;DHT22;54839;51.364;7.246;2024-01-11T14:53:33;1.10;99.90
68051;DHT22;54839;51.364;7.246;2024-01-11T14:55:59;1.00;99.90
68051;DHT22;54839;51.364;7.246;2024-01-11T14:58:24;0.90;99.90
68051;DHT22;54839;51.364;7.246;2024-01-11T15:00:50;0.70;99.90
68051;DHT22;54839;51.364;7.246;2024-01-11T15:03:16;0.70;99.90
68051;DHT22;54839;51.364;7.246;2024-01-11T15:05:42;0.50;99.90
68051;DHT22;54839;51.364;7.246;2024-01-11T15:08:07;0.50;99.90
68051;DHT22;54839;51.364;7.246;2024-01-11T15:10:33;0.40;99.90
68051;DHT22;54839;51.364;7.246;2024-01-11T15:12:58;0.40;99.90
68051;DHT22;54839;51.364;7.246;2024-01-11T15:15:24;0.30;99.90
68051;DHT22;54839;51.364;7.246;2024-01-11T15:17:50;0.20;99.90
68051;DHT22;54839;51.364;7.246;2024-01-11T15:20:15;0.40;99.90
68051;DHT22;54839;51.364;7.246;2024-01-11T15:22:41;0.30;99.90
68051;DHT22;54839;51.364;7.246;2024-01-11T15:25:07;0.40;99.90
68051;DHT22;54839;51.364;7.246;2024-01-11T15:27:32;0.40;99.90
68051;DHT22;54839;51.364;7.246;2024-01-11T15:29:58;0.30;99.90
68051;DHT22;54839;51.364;7.246;2024-01-11T15:32:23;0.20;99.90